createdAt,value
2016-04-23T00:00:04.982Z,1011.94
2016-04-23T00:00:14.951Z,1011.92
2016-04-23T00:00:24.951Z,1011.88
2016-04-23T00:00:34.919Z,1011.92
2016-04-23T00:00:44.935Z,1011.92
2016-04-23T00:00:54.935Z,1011.94
2016-04-23T00:01:04.922Z,1011.93
2016-04-23T00:01:14.954Z,1011.96
2016-04-23T00:01:24.922Z,1011.93
2016-04-23T00:01:34.922Z,1011.95
2016-04-23T00:01:44.907Z,1011.91
2016-04-23T00:01:54.907Z,1011.94
2016-04-23T00:02:04.769Z,1011.94
2016-04-23T00:02:14.878Z,1011.94
2016-04-23T00:02:24.878Z,1011.94
2016-04-23T00:02:34.878Z,1011.94
2016-04-23T00:02:44.863Z,1011.95
2016-04-23T00:02:54.878Z,1011.93
2016-04-23T00:03:04.865Z,1011.97
2016-04-23T00:03:14.865Z,1011.91
2016-04-23T00:03:24.865Z,1011.93
2016-04-23T00:03:34.709Z,1011.91
2016-04-23T00:03:44.849Z,1011.94
2016-04-23T00:03:54.834Z,1011.89
2016-04-23T00:04:04.852Z,1011.9
2016-04-23T00:04:14.837Z,1011.91
2016-04-23T00:04:24.837Z,1011.92
2016-04-23T00:04:34.837Z,1011.9
2016-04-23T00:04:44.837Z,1011.9
2016-04-23T00:04:54.805Z,1011.91
2016-04-23T00:05:04.793Z,1011.88
2016-04-23T00:05:14.793Z,1011.9
2016-04-23T00:05:24.793Z,1011.91
2016-04-23T00:05:34.793Z,1011.9
2016-04-23T00:05:44.793Z,1011.92
2016-04-23T00:05:54.793Z,1011.88
2016-04-23T00:06:04.780Z,1011.9
2016-04-23T00:06:14.764Z,1011.84
2016-04-23T00:06:24.764Z,1011.88
2016-04-23T00:06:34.749Z,1011.86
2016-04-23T00:06:44.764Z,1011.86
2016-04-23T00:06:54.749Z,1011.87
2016-04-23T00:07:04.751Z,1011.86
2016-04-23T00:07:14.595Z,1011.89
2016-04-23T00:07:24.751Z,1011.86
2016-04-23T00:07:34.735Z,1011.89
2016-04-23T00:07:44.735Z,1011.87
2016-04-23T00:07:54.735Z,1011.91
2016-04-23T00:08:04.738Z,1011.86
2016-04-23T00:08:14.707Z,1011.85
2016-04-23T00:08:24.723Z,1011.88
2016-04-23T00:08:34.691Z,1011.84
2016-04-23T00:08:44.707Z,1011.85
2016-04-23T00:08:54.691Z,1011.86
2016-04-23T00:09:04.693Z,1011.85
2016-04-23T00:09:14.693Z,1011.84
2016-04-23T00:09:24.709Z,1011.9
2016-04-23T00:09:34.678Z,1011.84
2016-04-23T00:09:44.693Z,1011.85
2016-04-23T00:09:54.646Z,1011.83
2016-04-23T00:10:04.666Z,1011.85
2016-04-23T00:10:14.650Z,1011.87
2016-04-23T00:10:24.650Z,1011.86
2016-04-23T00:10:34.650Z,1011.87
2016-04-23T00:10:44.650Z,1011.87
2016-04-23T00:10:54.635Z,1011.87
2016-04-23T00:11:04.637Z,1011.85
2016-04-23T00:11:14.621Z,1011.83
2016-04-23T00:11:24.621Z,1011.85
2016-04-23T00:11:34.606Z,1011.86
2016-04-23T00:11:44.606Z,1011.86
2016-04-23T00:11:54.606Z,1011.84
2016-04-23T00:12:04.609Z,1011.84
2016-04-23T00:12:14.609Z,1011.88
2016-04-23T00:12:24.593Z,1011.85
2016-04-23T00:12:34.593Z,1011.84
2016-04-23T00:12:44.577Z,1011.83
2016-04-23T00:12:54.577Z,1011.82
2016-04-23T00:13:04.564Z,1011.85
2016-04-23T00:13:14.579Z,1011.82
2016-04-23T00:13:24.564Z,1011.83
2016-04-23T00:13:34.564Z,1011.83
2016-04-23T00:13:44.564Z,1011.87
2016-04-23T00:13:54.548Z,1011.86
2016-04-23T00:14:04.535Z,1011.85
2016-04-23T00:14:14.535Z,1011.84
2016-04-23T00:14:24.551Z,1011.84
2016-04-23T00:14:34.535Z,1011.83
2016-04-23T00:14:44.520Z,1011.82
2016-04-23T00:14:54.504Z,1011.82
2016-04-23T00:15:04.507Z,1011.87
2016-04-23T00:15:14.523Z,1011.83
2016-04-23T00:15:24.523Z,1011.84
2016-04-23T00:15:34.507Z,1011.84
2016-04-23T00:15:44.507Z,1011.85
2016-04-23T00:15:54.476Z,1011.83
2016-04-23T00:16:04.478Z,1011.86
2016-04-23T00:16:14.478Z,1011.86
2016-04-23T00:16:24.478Z,1011.83
2016-04-23T00:16:34.478Z,1011.8
2016-04-23T00:16:44.462Z,1011.85
2016-04-23T00:16:54.322Z,1011.84
2016-04-23T00:17:04.465Z,1011.86
2016-04-23T00:17:14.450Z,1011.81
2016-04-23T00:17:24.434Z,1011.79
2016-04-23T00:17:34.434Z,1011.8
2016-04-23T00:17:44.434Z,1011.8
2016-04-23T00:17:54.434Z,1011.79
2016-04-23T00:18:04.437Z,1011.79
2016-04-23T00:18:14.421Z,1011.81
2016-04-23T00:18:24.421Z,1011.81
2016-04-23T00:18:34.421Z,1011.81
2016-04-23T00:18:44.421Z,1011.82
2016-04-23T00:18:54.390Z,1011.79
2016-04-23T00:19:04.409Z,1011.82
2016-04-23T00:19:14.378Z,1011.81
2016-04-23T00:19:24.393Z,1011.83
2016-04-23T00:19:34.393Z,1011.78
2016-04-23T00:19:44.378Z,1011.82
2016-04-23T00:19:54.378Z,1011.77
2016-04-23T00:20:10.598Z,1011.74
2016-04-23T00:20:20.583Z,1011.74
2016-04-23T00:20:30.583Z,1011.75
2016-04-23T00:20:40.583Z,1011.8
2016-04-23T00:20:50.583Z,1011.76
2016-04-23T00:21:00.554Z,1011.77
2016-04-23T00:21:10.554Z,1011.75
2016-04-23T00:21:20.539Z,1011.79
2016-04-23T00:21:30.570Z,1011.76
2016-04-23T00:21:40.554Z,1011.76
2016-04-23T00:21:50.539Z,1011.71
2016-04-23T00:22:00.542Z,1011.75
2016-04-23T00:22:10.526Z,1011.75
2016-04-23T00:22:20.526Z,1011.79
2016-04-23T00:22:30.526Z,1011.72
2016-04-23T00:22:40.511Z,1011.75
2016-04-23T00:22:50.526Z,1011.76
2016-04-23T00:23:00.513Z,1011.74
2016-04-23T00:23:10.497Z,1011.73
2016-04-23T00:23:20.497Z,1011.79
2016-04-23T00:23:29.731Z,1011.75
2016-04-23T00:23:40.481Z,1011.72
2016-04-23T00:23:50.481Z,1011.72
2016-04-23T00:24:00.469Z,1011.7
2016-04-23T00:24:10.484Z,1011.72
2016-04-23T00:24:20.469Z,1011.69
2016-04-23T00:24:30.469Z,1011.72
2016-04-23T00:24:40.453Z,1011.74
2016-04-23T00:24:50.453Z,1011.71
2016-04-23T00:25:00.440Z,1011.7
2016-04-23T00:25:10.440Z,1011.71
2016-04-23T00:25:20.440Z,1011.7
2016-04-23T00:25:30.425Z,1011.71
2016-04-23T00:25:40.440Z,1011.76
2016-04-23T00:25:50.409Z,1011.68
2016-04-23T00:26:00.427Z,1011.68
2016-04-23T00:26:10.411Z,1011.71
2016-04-23T00:26:20.411Z,1011.69
2016-04-23T00:26:30.411Z,1011.67
2016-04-23T00:26:40.396Z,1011.68
2016-04-23T00:26:50.396Z,1011.68
2016-04-23T00:27:00.383Z,1011.67
2016-04-23T00:27:10.383Z,1011.69
2016-04-23T00:27:20.367Z,1011.69
2016-04-23T00:27:30.367Z,1011.68
2016-04-23T00:27:40.383Z,1011.65
2016-04-23T00:27:50.352Z,1011.66
2016-04-23T00:28:00.355Z,1011.68
2016-04-23T00:28:10.355Z,1011.66
2016-04-23T00:28:20.355Z,1011.67
2016-04-23T00:28:30.339Z,1011.64
2016-04-23T00:28:40.339Z,1011.66
2016-04-23T00:28:50.355Z,1011.66
2016-04-23T00:29:00.325Z,1011.62
2016-04-23T00:29:10.325Z,1011.67
2016-04-23T00:29:20.310Z,1011.66
2016-04-23T00:29:30.310Z,1011.67
2016-04-23T00:29:40.310Z,1011.66
2016-04-23T00:29:50.294Z,1011.67
2016-04-23T00:30:00.328Z,1011.63
2016-04-23T00:30:10.297Z,1011.65
2016-04-23T00:30:20.282Z,1011.63
2016-04-23T00:30:30.282Z,1011.66
2016-04-23T00:30:40.266Z,1011.66
2016-04-23T00:30:50.282Z,1011.66
2016-04-23T00:31:00.269Z,1011.62
2016-04-23T00:31:10.269Z,1011.62
2016-04-23T00:31:20.269Z,1011.65
2016-04-23T00:31:30.238Z,1011.63
2016-04-23T00:31:40.253Z,1011.64
2016-04-23T00:31:50.269Z,1011.66
2016-04-23T00:32:00.116Z,1011.66
2016-04-23T00:32:10.116Z,1011.66
2016-04-23T00:32:20.225Z,1011.65
2016-04-23T00:32:30.225Z,1011.66
2016-04-23T00:32:40.209Z,1011.67
2016-04-23T00:32:50.209Z,1011.65
2016-04-23T00:33:00.211Z,1011.64
2016-04-23T00:33:10.196Z,1011.64
2016-04-23T00:33:20.196Z,1011.63
2016-04-23T00:33:30.196Z,1011.66
2016-04-23T00:33:40.196Z,1011.62
2016-04-23T00:33:50.196Z,1011.63
2016-04-23T00:34:00.168Z,1011.65
2016-04-23T00:34:10.168Z,1011.64
2016-04-23T00:34:20.168Z,1011.66
2016-04-23T00:34:30.168Z,1011.65
2016-04-23T00:34:40.152Z,1011.65
2016-04-23T00:34:50.152Z,1011.64
2016-04-23T00:35:00.155Z,1011.64
2016-04-23T00:35:10.139Z,1011.66
2016-04-23T00:35:20.139Z,1011.61
2016-04-23T00:35:30.124Z,1011.65
2016-04-23T00:35:40.124Z,1011.6
2016-04-23T00:35:50.139Z,1011.59
2016-04-23T00:36:00.126Z,1011.63
2016-04-23T00:36:10.126Z,1011.62
2016-04-23T00:36:20.094Z,1011.63
2016-04-23T00:36:30.110Z,1011.6
2016-04-23T00:36:40.094Z,1011.62
2016-04-23T00:36:50.110Z,1011.61
2016-04-23T00:37:00.097Z,1011.63
2016-04-23T00:37:10.097Z,1011.63
2016-04-23T00:37:20.082Z,1011.65
2016-04-23T00:37:30.066Z,1011.65
2016-04-23T00:37:40.066Z,1011.62
2016-04-23T00:37:50.066Z,1011.64
2016-04-23T00:38:00.069Z,1011.61
2016-04-23T00:38:10.069Z,1011.61
2016-04-23T00:38:20.054Z,1011.58
2016-04-23T00:38:30.054Z,1011.61
2016-04-23T00:38:40.022Z,1011.62
2016-04-23T00:38:50.022Z,1011.63
2016-04-23T00:39:00.040Z,1011.6
2016-04-23T00:39:10.024Z,1011.61
2016-04-23T00:39:20.024Z,1011.64
2016-04-23T00:39:30.024Z,1011.64
2016-04-23T00:39:40.009Z,1011.63
2016-04-23T00:39:50.009Z,1011.6
2016-04-23T00:39:59.996Z,1011.65
2016-04-23T00:40:09.996Z,1011.62
2016-04-23T00:40:19.996Z,1011.63
2016-04-23T00:40:29.996Z,1011.59
2016-04-23T00:40:39.996Z,1011.6
2016-04-23T00:40:49.980Z,1011.61
2016-04-23T00:40:59.983Z,1011.6
2016-04-23T00:41:09.968Z,1011.59
2016-04-23T00:41:19.952Z,1011.61
2016-04-23T00:41:29.952Z,1011.58
2016-04-23T00:41:39.952Z,1011.6
2016-04-23T00:41:49.937Z,1011.63
2016-04-23T00:41:59.954Z,1011.57
2016-04-23T00:42:09.939Z,1011.58
2016-04-23T00:42:19.939Z,1011.59
2016-04-23T00:42:29.954Z,1011.59
2016-04-23T00:42:39.923Z,1011.58
2016-04-23T00:42:49.923Z,1011.61
2016-04-23T00:42:59.910Z,1011.58
2016-04-23T00:43:09.910Z,1011.56
2016-04-23T00:43:19.895Z,1011.59
2016-04-23T00:43:29.910Z,1011.56
2016-04-23T00:43:39.895Z,1011.56
2016-04-23T00:43:49.895Z,1011.56
2016-04-23T00:43:59.898Z,1011.6
2016-04-23T00:44:09.882Z,1011.57
2016-04-23T00:44:19.898Z,1011.58
2016-04-23T00:44:29.882Z,1011.62
2016-04-23T00:44:39.851Z,1011.57
2016-04-23T00:44:49.866Z,1011.55
2016-04-23T00:44:59.854Z,1011.55
2016-04-23T00:45:09.838Z,1011.52
2016-04-23T00:45:19.854Z,1011.56
2016-04-23T00:45:29.854Z,1011.54
2016-04-23T00:45:39.838Z,1011.54
2016-04-23T00:45:49.823Z,1011.55
2016-04-23T00:45:59.825Z,1011.55
2016-04-23T00:46:09.825Z,1011.51
2016-04-23T00:46:19.825Z,1011.51
2016-04-23T00:46:29.871Z,1011.53
2016-04-23T00:46:39.793Z,1011.56
2016-04-23T00:46:49.809Z,1011.55
2016-04-23T00:46:59.828Z,1011.56
2016-04-23T00:47:09.796Z,1011.54
2016-04-23T00:47:19.828Z,1011.53
2016-04-23T00:47:29.781Z,1011.52
2016-04-23T00:47:39.765Z,1011.55
2016-04-23T00:47:49.640Z,1011.54
2016-04-23T00:47:59.752Z,1011.57
2016-04-23T00:48:09.768Z,1011.51
2016-04-23T00:48:19.752Z,1011.53
2016-04-23T00:48:29.752Z,1011.54
2016-04-23T00:48:39.737Z,1011.53
2016-04-23T00:48:49.752Z,1011.52
2016-04-23T00:48:59.723Z,1011.54
2016-04-23T00:49:09.739Z,1011.54
2016-04-23T00:49:19.708Z,1011.57
2016-04-23T00:49:29.708Z,1011.57
2016-04-23T00:49:39.708Z,1011.55
2016-04-23T00:49:49.708Z,1011.51
2016-04-23T00:49:59.711Z,1011.52
2016-04-23T00:50:09.711Z,1011.55
2016-04-23T00:50:19.695Z,1011.54
2016-04-23T00:50:29.742Z,1011.54
2016-04-23T00:50:39.695Z,1011.52
2016-04-23T00:50:49.679Z,1011.54
2016-04-23T00:50:59.681Z,1011.57
2016-04-23T00:51:09.681Z,1011.53
2016-04-23T00:51:19.666Z,1011.53
2016-04-23T00:51:29.666Z,1011.53
2016-04-23T00:51:39.650Z,1011.54
2016-04-23T00:51:49.666Z,1011.54
2016-04-23T00:51:59.670Z,1011.52
2016-04-23T00:52:09.654Z,1011.55
2016-04-23T00:52:19.638Z,1011.51
2016-04-23T00:52:29.638Z,1011.47
2016-04-23T00:52:39.607Z,1011.49
2016-04-23T00:52:49.623Z,1011.56
2016-04-23T00:52:59.607Z,1011.56
2016-04-23T00:53:09.609Z,1011.52
2016-04-23T00:53:19.609Z,1011.53
2016-04-23T00:53:29.609Z,1011.54
2016-04-23T00:53:39.594Z,1011.55
2016-04-23T00:53:49.578Z,1011.51
2016-04-23T00:53:59.594Z,1011.54
2016-04-23T00:54:09.597Z,1011.53
2016-04-23T00:54:19.581Z,1011.52
2016-04-23T00:54:29.565Z,1011.53
2016-04-23T00:54:39.565Z,1011.54
2016-04-23T00:54:49.565Z,1011.54
2016-04-23T00:54:59.565Z,1011.52
2016-04-23T00:55:09.552Z,1011.55
2016-04-23T00:55:19.552Z,1011.51
2016-04-23T00:55:29.552Z,1011.52
2016-04-23T00:55:39.536Z,1011.46
2016-04-23T00:55:49.536Z,1011.52
2016-04-23T00:55:59.520Z,1011.5
2016-04-23T00:56:09.508Z,1011.5
2016-04-23T00:56:19.523Z,1011.47
2016-04-23T00:56:29.508Z,1011.52
2016-04-23T00:56:39.523Z,1011.51
2016-04-23T00:56:49.492Z,1011.52
2016-04-23T00:56:59.508Z,1011.51
2016-04-23T00:57:09.495Z,1011.53
2016-04-23T00:57:19.511Z,1011.51
2016-04-23T00:57:29.495Z,1011.53
2016-04-23T00:57:39.480Z,1011.5
2016-04-23T00:57:49.480Z,1011.53
2016-04-23T00:57:59.464Z,1011.52
2016-04-23T00:58:09.466Z,1011.54
2016-04-23T00:58:19.466Z,1011.49
2016-04-23T00:58:29.450Z,1011.5
2016-04-23T00:58:39.450Z,1011.5
2016-04-23T00:58:49.450Z,1011.5
2016-04-23T00:58:59.435Z,1011.49
2016-04-23T00:59:09.438Z,1011.53
2016-04-23T00:59:19.422Z,1011.54
2016-04-23T00:59:29.422Z,1011.52
2016-04-23T00:59:39.406Z,1011.49
2016-04-23T00:59:49.406Z,1011.5
2016-04-23T00:59:59.422Z,1011.5
2016-04-23T01:00:09.409Z,1011.48
2016-04-23T01:00:19.425Z,1011.5
2016-04-23T01:00:29.394Z,1011.48
2016-04-23T01:00:39.394Z,1011.49
2016-04-23T01:00:49.378Z,1011.5
2016-04-23T01:00:59.378Z,1011.48
2016-04-23T01:01:09.381Z,1011.5
2016-04-23T01:01:19.366Z,1011.45
2016-04-23T01:01:29.366Z,1011.47
2016-04-23T01:01:39.350Z,1011.48
2016-04-23T01:01:49.350Z,1011.46
2016-04-23T01:01:59.350Z,1011.45
2016-04-23T01:02:09.336Z,1011.46
2016-04-23T01:02:19.368Z,1011.47
2016-04-23T01:02:29.352Z,1011.45
2016-04-23T01:02:39.321Z,1011.42
2016-04-23T01:02:49.321Z,1011.43
2016-04-23T01:02:59.321Z,1011.4
2016-04-23T01:03:09.307Z,1011.45
2016-04-23T01:03:19.307Z,1011.43
2016-04-23T01:03:29.307Z,1011.39
2016-04-23T01:03:39.307Z,1011.45
2016-04-23T01:03:49.291Z,1011.45
2016-04-23T01:03:59.291Z,1011.43
2016-04-23T01:04:09.279Z,1011.43
2016-04-23T01:04:19.294Z,1011.43
2016-04-23T01:04:29.279Z,1011.43
2016-04-23T01:04:39.263Z,1011.44
2016-04-23T01:04:49.263Z,1011.42
2016-04-23T01:04:59.263Z,1011.39
2016-04-23T01:05:09.267Z,1011.42
2016-04-23T01:05:19.267Z,1011.44
2016-04-23T01:05:29.267Z,1011.43
2016-04-23T01:05:39.252Z,1011.41
2016-04-23T01:05:49.236Z,1011.43
2016-04-23T01:05:59.220Z,1011.46
2016-04-23T01:06:09.222Z,1011.42
2016-04-23T01:06:19.222Z,1011.43
2016-04-23T01:06:29.222Z,1011.44
2016-04-23T01:06:39.207Z,1011.42
2016-04-23T01:06:49.222Z,1011.4
2016-04-23T01:06:59.207Z,1011.38
2016-04-23T01:07:09.209Z,1011.37
2016-04-23T01:07:19.193Z,1011.38
2016-04-23T01:07:29.193Z,1011.4
2016-04-23T01:07:39.177Z,1011.4
2016-04-23T01:07:49.177Z,1011.38
2016-04-23T01:07:59.177Z,1011.37
2016-04-23T01:08:09.181Z,1011.41
2016-04-23T01:08:19.166Z,1011.4
2016-04-23T01:08:29.166Z,1011.44
2016-04-23T01:08:39.135Z,1011.4
2016-04-23T01:08:48.994Z,1011.41
2016-04-23T01:08:59.135Z,1011.43
2016-04-23T01:09:09.137Z,1011.39
2016-04-23T01:09:19.137Z,1011.41
2016-04-23T01:09:29.152Z,1011.38
2016-04-23T01:09:39.121Z,1011.39
2016-04-23T01:09:49.121Z,1011.38
2016-04-23T01:09:59.105Z,1011.37
2016-04-23T01:10:09.108Z,1011.38
2016-04-23T01:10:19.124Z,1011.38
2016-04-23T01:10:29.093Z,1011.41
2016-04-23T01:10:39.093Z,1011.41
2016-04-23T01:10:49.093Z,1011.4
2016-04-23T01:10:59.108Z,1011.41
2016-04-23T01:11:09.079Z,1011.39
2016-04-23T01:11:18.938Z,1011.35
2016-04-23T01:11:29.063Z,1011.37
2016-04-23T01:11:39.063Z,1011.41
2016-04-23T01:11:49.063Z,1011.36
2016-04-23T01:11:59.048Z,1011.35
2016-04-23T01:12:09.052Z,1011.4
2016-04-23T01:12:19.036Z,1011.38
2016-04-23T01:12:29.036Z,1011.36
2016-04-23T01:12:39.036Z,1011.33
2016-04-23T01:12:49.021Z,1011.37
2016-04-23T01:12:59.021Z,1011.37
2016-04-23T01:13:09.023Z,1011.37
2016-04-23T01:13:19.007Z,1011.35
2016-04-23T01:13:29.007Z,1011.37
2016-04-23T01:13:39.007Z,1011.33
2016-04-23T01:13:48.991Z,1011.37
2016-04-23T01:13:58.991Z,1011.36
2016-04-23T01:14:08.993Z,1011.34
2016-04-23T01:14:18.978Z,1011.34
2016-04-23T01:14:28.978Z,1011.38
2016-04-23T01:14:38.978Z,1011.41
2016-04-23T01:14:48.978Z,1011.39
2016-04-23T01:14:58.962Z,1011.36
2016-04-23T01:15:08.965Z,1011.35
2016-04-23T01:15:18.949Z,1011.36
2016-04-23T01:15:28.949Z,1011.33
2016-04-23T01:15:38.949Z,1011.32
2016-04-23T01:15:48.949Z,1011.31
2016-04-23T01:15:58.934Z,1011.33
2016-04-23T01:16:08.936Z,1011.32
2016-04-23T01:16:18.920Z,1011.32
2016-04-23T01:16:28.920Z,1011.33
2016-04-23T01:16:38.905Z,1011.38
2016-04-23T01:16:48.905Z,1011.36
2016-04-23T01:16:58.936Z,1011.34
2016-04-23T01:17:08.909Z,1011.34
2016-04-23T01:17:18.909Z,1011.38
2016-04-23T01:17:28.893Z,1011.37
2016-04-23T01:17:38.877Z,1011.33
2016-04-23T01:17:48.784Z,1011.38
2016-04-23T01:17:58.862Z,1011.35
2016-04-23T01:18:08.895Z,1011.36
2016-04-23T01:18:18.864Z,1011.32
2016-04-23T01:18:28.864Z,1011.34
2016-04-23T01:18:38.692Z,1011.33
2016-04-23T01:18:48.848Z,1011.32
2016-04-23T01:18:58.864Z,1011.36
2016-04-23T01:19:08.835Z,1011.32
2016-04-23T01:19:18.851Z,1011.33
2016-04-23T01:19:28.820Z,1011.33
2016-04-23T01:19:38.835Z,1011.35
2016-04-23T01:19:48.820Z,1011.34
2016-04-23T01:19:58.804Z,1011.31
2016-04-23T01:20:08.823Z,1011.35
2016-04-23T01:20:18.807Z,1011.33
2016-04-23T01:20:28.823Z,1011.31
2016-04-23T01:20:38.823Z,1011.31
2016-04-23T01:20:48.776Z,1011.32
2016-04-23T01:20:58.792Z,1011.31
2016-04-23T01:21:08.795Z,1011.32
2016-04-23T01:21:18.763Z,1011.35
2016-04-23T01:21:28.779Z,1011.31
2016-04-23T01:21:38.779Z,1011.33
2016-04-23T01:21:48.763Z,1011.31
2016-04-23T01:21:58.748Z,1011.31
2016-04-23T01:22:08.750Z,1011.31
2016-04-23T01:22:18.750Z,1011.32
2016-04-23T01:22:28.734Z,1011.33
2016-04-23T01:22:38.765Z,1011.29
2016-04-23T01:22:48.765Z,1011.33
2016-04-23T01:22:58.765Z,1011.31
2016-04-23T01:23:08.752Z,1011.3
2016-04-23T01:23:18.736Z,1011.33
2016-04-23T01:23:28.720Z,1011.3
2016-04-23T01:23:38.705Z,1011.28
2016-04-23T01:23:48.720Z,1011.32
2016-04-23T01:23:58.705Z,1011.31
2016-04-23T01:24:08.693Z,1011.33
2016-04-23T01:24:18.693Z,1011.28
2016-04-23T01:24:28.678Z,1011.28
2016-04-23T01:24:38.678Z,1011.3
2016-04-23T01:24:48.662Z,1011.29
2016-04-23T01:24:58.662Z,1011.27
2016-04-23T01:25:08.664Z,1011.29
2016-04-23T01:25:18.648Z,1011.29
2016-04-23T01:25:28.648Z,1011.26
2016-04-23T01:25:38.633Z,1011.27
2016-04-23T01:25:48.648Z,1011.27
2016-04-23T01:25:58.633Z,1011.27
2016-04-23T01:26:08.636Z,1011.29
2016-04-23T01:26:18.636Z,1011.3
2016-04-23T01:26:28.620Z,1011.27
2016-04-23T01:26:38.620Z,1011.28
2016-04-23T01:26:48.604Z,1011.25
2016-04-23T01:26:58.604Z,1011.28
2016-04-23T01:27:08.606Z,1011.32
2016-04-23T01:27:18.606Z,1011.31
2016-04-23T01:27:28.591Z,1011.31
2016-04-23T01:27:38.591Z,1011.29
2016-04-23T01:27:48.575Z,1011.33
2016-04-23T01:27:58.560Z,1011.32
2016-04-23T01:28:08.563Z,1011.29
2016-04-23T01:28:18.563Z,1011.29
2016-04-23T01:28:28.547Z,1011.29
2016-04-23T01:28:38.578Z,1011.32
2016-04-23T01:28:48.547Z,1011.31
2016-04-23T01:28:58.547Z,1011.32
2016-04-23T01:29:08.550Z,1011.29
2016-04-23T01:29:18.550Z,1011.3
2016-04-23T01:29:28.534Z,1011.28
2016-04-23T01:29:38.519Z,1011.32
2016-04-23T01:29:48.519Z,1011.29
2016-04-23T01:29:58.519Z,1011.29
2016-04-23T01:30:08.521Z,1011.32
2016-04-23T01:30:18.505Z,1011.32
2016-04-23T01:30:28.489Z,1011.33
2016-04-23T01:30:38.505Z,1011.34
2016-04-23T01:30:48.505Z,1011.31
2016-04-23T01:30:58.489Z,1011.29
2016-04-23T01:31:08.492Z,1011.34
2016-04-23T01:31:18.477Z,1011.28
2016-04-23T01:31:28.477Z,1011.32
2016-04-23T01:31:38.461Z,1011.3
2016-04-23T01:31:48.461Z,1011.32
2016-04-23T01:31:58.461Z,1011.27
2016-04-23T01:32:08.449Z,1011.31
2016-04-23T01:32:18.449Z,1011.32
2016-04-23T01:32:28.433Z,1011.32
2016-04-23T01:32:38.449Z,1011.33
2016-04-23T01:32:48.433Z,1011.32
2016-04-23T01:32:58.449Z,1011.3
2016-04-23T01:33:08.436Z,1011.28
2016-04-23T01:33:18.420Z,1011.31
2016-04-23T01:33:28.420Z,1011.29
2016-04-23T01:33:38.405Z,1011.3
2016-04-23T01:33:48.405Z,1011.3
2016-04-23T01:33:58.420Z,1011.28
2016-04-23T01:34:08.407Z,1011.3
2016-04-23T01:34:18.391Z,1011.3
2016-04-23T01:34:28.391Z,1011.34
2016-04-23T01:34:38.407Z,1011.29
2016-04-23T01:34:48.407Z,1011.29
2016-04-23T01:34:58.407Z,1011.29
2016-04-23T01:35:08.394Z,1011.32
2016-04-23T01:35:18.394Z,1011.3
2016-04-23T01:35:28.378Z,1011.31
2016-04-23T01:35:38.378Z,1011.36
2016-04-23T01:35:48.363Z,1011.31
2016-04-23T01:35:58.363Z,1011.34
2016-04-23T01:36:08.350Z,1011.37
2016-04-23T01:36:18.350Z,1011.36
2016-04-23T01:36:28.350Z,1011.3
2016-04-23T01:36:38.350Z,1011.3
2016-04-23T01:36:48.350Z,1011.32
2016-04-23T01:36:58.335Z,1011.31
2016-04-23T01:37:08.321Z,1011.34
2016-04-23T01:37:18.305Z,1011.33
2016-04-23T01:37:28.305Z,1011.3
2016-04-23T01:37:38.321Z,1011.3
2016-04-23T01:37:48.305Z,1011.36
2016-04-23T01:37:58.321Z,1011.31
2016-04-23T01:38:08.308Z,1011.32
2016-04-23T01:38:18.293Z,1011.34
2016-04-23T01:38:28.293Z,1011.31
2016-04-23T01:38:38.277Z,1011.31
2016-04-23T01:38:48.261Z,1011.33
2016-04-23T01:38:58.277Z,1011.35
2016-04-23T01:39:08.249Z,1011.35
2016-04-23T01:39:18.280Z,1011.34
2016-04-23T01:39:28.264Z,1011.38
2016-04-23T01:39:38.264Z,1011.33
2016-04-23T01:39:48.249Z,1011.34
2016-04-23T01:39:58.249Z,1011.31
2016-04-23T01:40:08.235Z,1011.31
2016-04-23T01:40:18.220Z,1011.32
2016-04-23T01:40:28.251Z,1011.31
2016-04-23T01:40:38.235Z,1011.33
2016-04-23T01:40:48.220Z,1011.33
2016-04-23T01:40:58.204Z,1011.31
2016-04-23T01:41:08.207Z,1011.36
2016-04-23T01:41:18.223Z,1011.33
2016-04-23T01:41:28.223Z,1011.34
2016-04-23T01:41:38.191Z,1011.32
2016-04-23T01:41:48.207Z,1011.36
2016-04-23T01:41:58.176Z,1011.37
2016-04-23T01:42:08.179Z,1011.32
2016-04-23T01:42:18.163Z,1011.34
2016-04-23T01:42:28.163Z,1011.35
2016-04-23T01:42:38.194Z,1011.3
2016-04-23T01:42:48.163Z,1011.3
2016-04-23T01:42:58.163Z,1011.34
2016-04-23T01:43:08.149Z,1011.31
2016-04-23T01:43:18.149Z,1011.3
2016-04-23T01:43:28.134Z,1011.33
2016-04-23T01:43:38.134Z,1011.35
2016-04-23T01:43:48.134Z,1011.28
2016-04-23T01:43:58.134Z,1011.31
2016-04-23T01:44:08.121Z,1011.35
2016-04-23T01:44:18.106Z,1011.32
2016-04-23T01:44:28.106Z,1011.31
2016-04-23T01:44:38.106Z,1011.3
2016-04-23T01:44:48.106Z,1011.31
2016-04-23T01:44:58.106Z,1011.31
2016-04-23T01:45:08.093Z,1011.3
2016-04-23T01:45:18.077Z,1011.3
2016-04-23T01:45:28.093Z,1011.35
2016-04-23T01:45:38.062Z,1011.3
2016-04-23T01:45:48.062Z,1011.32
2016-04-23T01:45:58.062Z,1011.3
2016-04-23T01:46:08.080Z,1011.31
2016-04-23T01:46:18.080Z,1011.3
2016-04-23T01:46:28.065Z,1011.26
2016-04-23T01:46:38.049Z,1011.27
2016-04-23T01:46:48.033Z,1011.3
2016-04-23T01:46:58.033Z,1011.28
2016-04-23T01:47:08.035Z,1011.33
2016-04-23T01:47:18.020Z,1011.3
2016-04-23T01:47:28.020Z,1011.3
2016-04-23T01:47:38.051Z,1011.29
2016-04-23T01:47:48.004Z,1011.3
2016-04-23T01:47:58.035Z,1011.29
2016-04-23T01:48:08.007Z,1011.31
2016-04-23T01:48:17.992Z,1011.34
2016-04-23T01:48:27.992Z,1011.28
2016-04-23T01:48:37.992Z,1011.29
2016-04-23T01:48:47.960Z,1011.29
2016-04-23T01:48:57.976Z,1011.29
2016-04-23T01:49:07.979Z,1011.3
2016-04-23T01:49:17.963Z,1011.29
2016-04-23T01:49:27.963Z,1011.3
2016-04-23T01:49:37.948Z,1011.34
2016-04-23T01:49:47.963Z,1011.3
2016-04-23T01:49:57.948Z,1011.29
2016-04-23T01:50:07.950Z,1011.29
2016-04-23T01:50:17.934Z,1011.34
2016-04-23T01:50:27.934Z,1011.26
2016-04-23T01:50:37.918Z,1011.27
2016-04-23T01:50:47.918Z,1011.3
2016-04-23T01:50:57.903Z,1011.26
2016-04-23T01:51:07.906Z,1011.27
2016-04-23T01:51:17.906Z,1011.25
2016-04-23T01:51:27.906Z,1011.25
2016-04-23T01:51:37.906Z,1011.3
2016-04-23T01:51:47.890Z,1011.27
2016-04-23T01:51:57.890Z,1011.28
2016-04-23T01:52:07.892Z,1011.29
2016-04-23T01:52:17.877Z,1011.28
2016-04-23T01:52:27.861Z,1011.24
2016-04-23T01:52:37.861Z,1011.24
2016-04-23T01:52:47.861Z,1011.24
2016-04-23T01:52:57.861Z,1011.25
2016-04-23T01:53:07.849Z,1011.26
2016-04-23T01:53:17.834Z,1011.22
2016-04-23T01:53:27.834Z,1011.23
2016-04-23T01:53:37.834Z,1011.22
2016-04-23T01:53:47.834Z,1011.28
2016-04-23T01:53:57.818Z,1011.24
2016-04-23T01:54:07.820Z,1011.26
2016-04-23T01:54:17.820Z,1011.25
2016-04-23T01:54:27.820Z,1011.21
2016-04-23T01:54:37.804Z,1011.21
2016-04-23T01:54:47.804Z,1011.23
2016-04-23T01:54:57.789Z,1011.21
2016-04-23T01:55:07.806Z,1011.2
2016-04-23T01:55:17.775Z,1011.22
2016-04-23T01:55:27.775Z,1011.22
2016-04-23T01:55:37.791Z,1011.23
2016-04-23T01:55:47.760Z,1011.21
2016-04-23T01:55:57.775Z,1011.23
2016-04-23T01:56:07.779Z,1011.21
2016-04-23T01:56:17.764Z,1011.26
2016-04-23T01:56:27.764Z,1011.24
2016-04-23T01:56:37.732Z,1011.23
2016-04-23T01:56:47.748Z,1011.18
2016-04-23T01:56:57.732Z,1011.21
2016-04-23T01:57:07.719Z,1011.2
2016-04-23T01:57:17.719Z,1011.17
2016-04-23T01:57:27.719Z,1011.15
2016-04-23T01:57:37.719Z,1011.19
2016-04-23T01:57:47.703Z,1011.19
2016-04-23T01:57:57.703Z,1011.19
2016-04-23T01:58:07.706Z,1011.15
2016-04-23T01:58:17.706Z,1011.16
2016-04-23T01:58:27.706Z,1011.18
2016-04-23T01:58:37.690Z,1011.21
2016-04-23T01:58:47.690Z,1011.22
2016-04-23T01:58:57.675Z,1011.2
2016-04-23T01:59:07.661Z,1011.17
2016-04-23T01:59:17.677Z,1011.13
2016-04-23T01:59:27.661Z,1011.19
2016-04-23T01:59:37.661Z,1011.17
2016-04-23T01:59:47.661Z,1011.16
2016-04-23T01:59:57.630Z,1011.16
2016-04-23T02:00:07.650Z,1011.24
2016-04-23T02:00:17.650Z,1011.18
2016-04-23T02:00:27.634Z,1011.17
2016-04-23T02:00:37.634Z,1011.15
2016-04-23T02:00:47.618Z,1011.14
2016-04-23T02:00:57.634Z,1011.15
2016-04-23T02:01:07.605Z,1011.17
2016-04-23T02:01:17.620Z,1011.16
2016-04-23T02:01:27.589Z,1011.17